sensor_id;sensor_type;location;lat;lon;timestamp;temperature;humidity
6988;DHT22;3534;49.960;8.018;2023-01-04T00:01:15;7.80;99.90
6988;DHT22;3534;49.960;8.018;2023-01-04T00:03:42;7.80;99.90
6988;DHT22;3534;49.960;8.018;2023-01-04T00:06:12;7.80;99.90
6988;DHT22;3534;49.960;8.018;2023-01-04T00:08:39;7.90;99.90
6988;DHT22;3534;49.960;8.018;2023-01-04T00:11:10;7.80;99.90
6988;DHT22;3534;49.960;8.018;2023-01-04T00:13:37;7.80;99.90
6988;DHT22;3534;49.960;8.018;2023-01-04T00:16:06;7.80;99.90
6988;DHT22;3534;49.960;8.018;2023-01-04T00:18:33;7.80;99.90
6988;DHT22;3534;49.960;8.018;2023-01-04T00:21:06;7.80;99.90
6988;DHT22;3534;49.960;8.018;2023-01-04T00:26:22;8.00;99.90
6988;DHT22;3534;49.960;8.018;2023-01-04T00:28:52;8.00;99.90
6988;DHT22;3534;49.960;8.018;2023-01-04T00:31:20;8.10;99.90
6988;DHT22;3534;49.960;8.018;2023-01-04T00:33:47;8.10;99.90
6988;DHT22;3534;49.960;8.018;2023-01-04T00:36:14;8.10;99.90
6988;DHT22;3534;49.960;8.018;2023-01-04T00:38:41;8.10;99.90
6988;DHT22;3534;49.960;8.018;2023-01-04T00:41:09;8.20;99.90
6988;DHT22;3534;49.960;8.018;2023-01-04T00:43:37;8.20;99.90
6988;DHT22;3534;49.960;8.018;2023-01-04T00:46:04;8.30;99.90
6988;DHT22;3534;49.960;8.018;2023-01-04T00:48:35;8.30;99.90
6988;DHT22;3534;49.960;8.018;2023-01-04T00:51:02;8.30;99.90
6988;DHT22;3534;49.960;8.018;2023-01-04T00:53:29;8.30;99.90
6988;DHT22;3534;49.960;8.018;2023-01-04T00:55:58;8.30;99.90
6988;DHT22;3534;49.960;8.018;2023-01-04T00:58:25;8.40;99.90
6988;DHT22;3534;49.960;8.018;2023-01-04T01:00:53;8.40;99.90
6988;DHT22;3534;49.960;8.018;2023-01-04T01:03:20;8.40;99.90
6988;DHT22;3534;49.960;8.018;2023-01-04T01:05:47;8.40;99.90
6988;DHT22;3534;49.960;8.018;2023-01-04T01:08:13;8.40;99.90
6988;DHT22;3534;49.960;8.018;2023-01-04T01:10:52;8.40;99.90
6988;DHT22;3534;49.960;8.018;2023-01-04T01:13:19;8.50;99.90
6988;DHT22;3534;49.960;8.018;2023-01-04T01:15:46;8.50;99.90
6988;DHT22;3534;49.960;8.018;2023-01-04T01:18:14;8.50;99.90
6988;DHT22;3534;49.960;8.018;2023-01-04T01:20:41;8.50;99.90
6988;DHT22;3534;49.960;8.018;2023-01-04T01:23:10;8.40;99.90
6988;DHT22;3534;49.960;8.018;2023-01-04T01:25:37;8.40;99.90
6988;DHT22;3534;49.960;8.018;2023-01-04T01:28:04;8.40;99.90
6988;DHT22;3534;49.960;8.018;2023-01-04T01:30:31;8.40;99.90
6988;DHT22;3534;49.960;8.018;2023-01-04T01:32:57;8.40;99.90
6988;DHT22;3534;49.960;8.018;2023-01-04T01:35:25;8.40;99.90
6988;DHT22;3534;49.960;8.018;2023-01-04T01:37:52;8.40;99.90
6988;DHT22;3534;49.960;8.018;2023-01-04T01:40:19;8.40;99.90
6988;DHT22;3534;49.960;8.018;2023-01-04T01:42:45;8.40;99.90
6988;DHT22;3534;49.960;8.018;2023-01-04T01:45:25;8.50;99.90
6988;DHT22;3534;49.960;8.018;2023-01-04T01:47:56;8.50;99.90
6988;DHT22;3534;49.960;8.018;2023-01-04T01:50:28;8.50;99.90
6988;DHT22;3534;49.960;8.018;2023-01-04T01:52:56;8.50;99.90
6988;DHT22;3534;49.960;8.018;2023-01-04T01:55:24;8.50;99.90
6988;DHT22;3534;49.960;8.018;2023-01-04T01:57:52;8.50;99.90
6988;DHT22;3534;49.960;8.018;2023-01-04T02:00:20;8.50;99.90
6988;DHT22;3534;49.960;8.018;2023-01-04T02:02:53;8.50;99.90
6988;DHT22;3534;49.960;8.018;2023-01-04T02:05:22;8.50;99.90
6988;DHT22;3534;49.960;8.018;2023-01-04T02:07:52;8.50;99.90
6988;DHT22;3534;49.960;8.018;2023-01-04T02:10:19;8.60;99.90
6988;DHT22;3534;49.960;8.018;2023-01-04T02:12:46;8.50;99.90
6988;DHT22;3534;49.960;8.018;2023-01-04T02:15:15;8.50;99.90
6988;DHT22;3534;49.960;8.018;2023-01-04T02:17:48;8.60;99.90
6988;DHT22;3534;49.960;8.018;2023-01-04T02:20:27;8.60;99.90
6988;DHT22;3534;49.960;8.018;2023-01-04T02:23:25;8.60;99.90
6988;DHT22;3534;49.960;8.018;2023-01-04T02:32:36;8.50;99.90
6988;DHT22;3534;49.960;8.018;2023-01-04T02:35:11;8.50;99.90
6988;DHT22;3534;49.960;8.018;2023-01-04T02:37:46;8.50;99.90
6988;DHT22;3534;49.960;8.018;2023-01-04T02:40:20;8.50;99.90
6988;DHT22;3534;49.960;8.018;2023-01-04T02:42:53;8.50;99.90
6988;DHT22;3534;49.960;8.018;2023-01-04T02:45:51;8.50;99.90
6988;DHT22;3534;49.960;8.018;2023-01-04T02:48:21;8.50;99.90
6988;DHT22;3534;49.960;8.018;2023-01-04T02:53:46;8.50;99.90
6988;DHT22;3534;49.960;8.018;2023-01-04T02:56:17;8.50;99.90
6988;DHT22;3534;49.960;8.018;2023-01-04T02:59:09;8.50;99.90
6988;DHT22;3534;49.960;8.018;2023-01-04T03:01:44;8.50;99.90
6988;DHT22;3534;49.960;8.018;2023-01-04T03:04:42;8.50;99.90
6988;DHT22;3534;49.960;8.018;2023-01-04T03:07:34;8.50;99.90
6988;DHT22;3534;49.960;8.018;2023-01-04T03:10:07;8.60;99.90
6988;DHT22;3534;49.960;8.018;2023-01-04T03:12:42;8.60;99.90
6988;DHT22;3534;49.960;8.018;2023-01-04T03:15:12;8.60;99.90
6988;DHT22;3534;49.960;8.018;2023-01-04T03:17:44;8.60;99.90
6988;DHT22;3534;49.960;8.018;2023-01-04T03:20:14;8.60;99.90
6988;DHT22;3534;49.960;8.018;2023-01-04T03:22:46;8.60;99.90
6988;DHT22;3534;49.960;8.018;2023-01-04T03:25:42;8.60;99.90
6988;DHT22;3534;49.960;8.018;2023-01-04T03:28:30;8.70;99.90
6988;DHT22;3534;49.960;8.018;2023-01-04T03:31:20;8.70;99.90
6988;DHT22;3534;49.960;8.018;2023-01-04T03:34:05;8.70;99.90
6988;DHT22;3534;49.960;8.018;2023-01-04T03:37:12;8.70;99.90
6988;DHT22;3534;49.960;8.018;2023-01-04T03:39:46;8.70;99.90
6988;DHT22;3534;49.960;8.018;2023-01-04T03:42:41;8.70;99.90
6988;DHT22;3534;49.960;8.018;2023-01-04T03:45:31;8.70;99.90
6988;DHT22;3534;49.960;8.018;2023-01-04T03:48:20;8.70;99.90
6988;DHT22;3534;49.960;8.018;2023-01-04T03:51:06;8.70;99.90
6988;DHT22;3534;49.960;8.018;2023-01-04T03:53:46;8.70;99.90
6988;DHT22;3534;49.960;8.018;2023-01-04T03:56:15;8.80;99.90
6988;DHT22;3534;49.960;8.018;2023-01-04T03:58:42;8.80;99.90
6988;DHT22;3534;49.960;8.018;2023-01-04T04:01:09;8.80;99.90
6988;DHT22;3534;49.960;8.018;2023-01-04T04:03:36;8.80;99.90
6988;DHT22;3534;49.960;8.018;2023-01-04T04:06:20;8.80;99.90
6988;DHT22;3534;49.960;8.018;2023-01-04T04:09:05;8.80;99.90
6988;DHT22;3534;49.960;8.018;2023-01-04T04:11:32;8.90;99.90
6988;DHT22;3534;49.960;8.018;2023-01-04T04:13:59;8.90;99.90
6988;DHT22;3534;49.960;8.018;2023-01-04T04:16:26;8.90;99.90
6988;DHT22;3534;49.960;8.018;2023-01-04T04:18:53;8.90;99.90
6988;DHT22;3534;49.960;8.018;2023-01-04T04:21:20;8.90;99.90
6988;DHT22;3534;49.960;8.018;2023-01-04T04:23:47;8.90;99.90
6988;DHT22;3534;49.960;8.018;2023-01-04T04:26:15;8.90;99.90
6988;DHT22;3534;49.960;8.018;2023-01-04T04:28:42;9.00;99.90
6988;DHT22;3534;49.960;8.018;2023-01-04T04:31:09;8.90;99.90
6988;DHT22;3534;49.960;8.018;2023-01-04T04:33:35;9.00;99.90
6988;DHT22;3534;49.960;8.018;2023-01-04T04:36:02;8.90;99.90
6988;DHT22;3534;49.960;8.018;2023-01-04T04:38:29;9.00;99.90
6988;DHT22;3534;49.960;8.018;2023-01-04T04:40:56;9.00;99.90
6988;DHT22;3534;49.960;8.018;2023-01-04T04:43:41;9.00;99.90
6988;DHT22;3534;49.960;8.018;2023-01-04T04:46:08;9.00;99.90
6988;DHT22;3534;49.960;8.018;2023-01-04T04:48:34;9.00;99.90
6988;DHT22;3534;49.960;8.018;2023-01-04T04:51:01;9.00;99.90
6988;DHT22;3534;49.960;8.018;2023-01-04T04:53:28;9.00;99.90
6988;DHT22;3534;49.960;8.018;2023-01-04T04:55:54;9.00;99.90
6988;DHT22;3534;49.960;8.018;2023-01-04T04:58:21;9.00;99.90
6988;DHT22;3534;49.960;8.018;2023-01-04T05:00:49;9.10;99.90
6988;DHT22;3534;49.960;8.018;2023-01-04T05:03:15;9.10;99.90
6988;DHT22;3534;49.960;8.018;2023-01-04T05:05:42;9.10;99.90
6988;DHT22;3534;49.960;8.018;2023-01-04T05:08:09;9.10;99.90
6988;DHT22;3534;49.960;8.018;2023-01-04T05:10:36;9.10;99.90
6988;DHT22;3534;49.960;8.018;2023-01-04T05:13:03;9.20;99.90
6988;DHT22;3534;49.960;8.018;2023-01-04T05:15:33;9.20;99.90
6988;DHT22;3534;49.960;8.018;2023-01-04T05:18:02;9.20;99.90
6988;DHT22;3534;49.960;8.018;2023-01-04T05:20:29;9.20;99.90
6988;DHT22;3534;49.960;8.018;2023-01-04T05:22:56;9.20;99.90
6988;DHT22;3534;49.960;8.018;2023-01-04T05:25:23;9.20;99.90
6988;DHT22;3534;49.960;8.018;2023-01-04T05:27:49;9.20;99.90
6988;DHT22;3534;49.960;8.018;2023-01-04T05:30:16;9.20;99.90
6988;DHT22;3534;49.960;8.018;2023-01-04T05:33:03;9.30;99.90
6988;DHT22;3534;49.960;8.018;2023-01-04T05:35:30;9.30;99.90
6988;DHT22;3534;49.960;8.018;2023-01-04T05:37:57;9.30;99.90
6988;DHT22;3534;49.960;8.018;2023-01-04T05:40:24;9.30;99.90
6988;DHT22;3534;49.960;8.018;2023-01-04T05:42:50;9.30;99.90
6988;DHT22;3534;49.960;8.018;2023-01-04T05:45:18;9.30;99.90
6988;DHT22;3534;49.960;8.018;2023-01-04T05:47:47;9.30;99.90
6988;DHT22;3534;49.960;8.018;2023-01-04T05:50:16;9.30;99.90
6988;DHT22;3534;49.960;8.018;2023-01-04T05:52:42;9.30;99.90
6988;DHT22;3534;49.960;8.018;2023-01-04T05:55:09;9.30;99.90
6988;DHT22;3534;49.960;8.018;2023-01-04T05:57:36;9.30;99.90
6988;DHT22;3534;49.960;8.018;2023-01-04T06:00:06;9.30;99.90
6988;DHT22;3534;49.960;8.018;2023-01-04T06:02:32;9.30;99.90
6988;DHT22;3534;49.960;8.018;2023-01-04T06:04:59;9.30;99.90
6988;DHT22;3534;49.960;8.018;2023-01-04T06:07:28;9.30;99.90
6988;DHT22;3534;49.960;8.018;2023-01-04T06:09:54;9.30;99.90
6988;DHT22;3534;49.960;8.018;2023-01-04T06:12:21;9.30;99.90
6988;DHT22;3534;49.960;8.018;2023-01-04T06:14:48;9.30;99.90
6988;DHT22;3534;49.960;8.018;2023-01-04T06:17:15;9.30;99.90
6988;DHT22;3534;49.960;8.018;2023-01-04T06:19:42;9.30;99.90
6988;DHT22;3534;49.960;8.018;2023-01-04T06:22:08;9.30;99.90
6988;DHT22;3534;49.960;8.018;2023-01-04T06:24:36;9.30;99.90
6988;DHT22;3534;49.960;8.018;2023-01-04T06:27:03;9.30;99.90
6988;DHT22;3534;49.960;8.018;2023-01-04T06:29:30;9.30;99.90
6988;DHT22;3534;49.960;8.018;2023-01-04T06:31:56;9.30;99.90
6988;DHT22;3534;49.960;8.018;2023-01-04T06:34:23;9.30;99.90
6988;DHT22;3534;49.960;8.018;2023-01-04T06:36:50;9.30;99.90
6988;DHT22;3534;49.960;8.018;2023-01-04T06:39:16;9.30;99.90
6988;DHT22;3534;49.960;8.018;2023-01-04T06:41:44;9.30;99.90
6988;DHT22;3534;49.960;8.018;2023-01-04T06:44:11;9.30;99.90
6988;DHT22;3534;49.960;8.018;2023-01-04T06:46:37;9.30;99.90
6988;DHT22;3534;49.960;8.018;2023-01-04T06:49:05;9.30;99.90
6988;DHT22;3534;49.960;8.018;2023-01-04T06:51:32;9.30;99.90
6988;DHT22;3534;49.960;8.018;2023-01-04T06:53:58;9.30;99.90
6988;DHT22;3534;49.960;8.018;2023-01-04T06:56:25;9.30;99.90
6988;DHT22;3534;49.960;8.018;2023-01-04T06:58:53;9.30;99.90
6988;DHT22;3534;49.960;8.018;2023-01-04T07:01:20;9.30;99.90
6988;DHT22;3534;49.960;8.018;2023-01-04T07:03:46;9.30;99.90
6988;DHT22;3534;49.960;8.018;2023-01-04T07:06:13;9.30;99.90
6988;DHT22;3534;49.960;8.018;2023-01-04T07:08:39;9.30;99.90
6988;DHT22;3534;49.960;8.018;2023-01-04T07:11:06;9.30;99.90
6988;DHT22;3534;49.960;8.018;2023-01-04T07:13:33;9.30;99.90
6988;DHT22;3534;49.960;8.018;2023-01-04T07:16:00;9.30;99.90
6988;DHT22;3534;49.960;8.018;2023-01-04T07:18:27;9.30;99.90
6988;DHT22;3534;49.960;8.018;2023-01-04T07:20:54;9.30;99.90
6988;DHT22;3534;49.960;8.018;2023-01-04T07:23:20;9.30;99.90
6988;DHT22;3534;49.960;8.018;2023-01-04T07:25:48;9.30;99.90
6988;DHT22;3534;49.960;8.018;2023-01-04T07:28:14;9.30;99.90
6988;DHT22;3534;49.960;8.018;2023-01-04T07:31:07;9.30;99.90
6988;DHT22;3534;49.960;8.018;2023-01-04T07:33:34;9.30;99.90
6988;DHT22;3534;49.960;8.018;2023-01-04T07:36:02;9.30;99.90
6988;DHT22;3534;49.960;8.018;2023-01-04T07:38:29;9.40;99.90
6988;DHT22;3534;49.960;8.018;2023-01-04T07:40:56;9.40;99.90
6988;DHT22;3534;49.960;8.018;2023-01-04T07:43:22;9.40;99.90
6988;DHT22;3534;49.960;8.018;2023-01-04T07:45:49;9.40;99.90
6988;DHT22;3534;49.960;8.018;2023-01-04T07:48:17;9.40;99.90
6988;DHT22;3534;49.960;8.018;2023-01-04T07:50:44;9.40;99.90
6988;DHT22;3534;49.960;8.018;2023-01-04T07:53:11;9.40;99.90
6988;DHT22;3534;49.960;8.018;2023-01-04T07:55:38;9.40;99.90
6988;DHT22;3534;49.960;8.018;2023-01-04T07:58:04;9.40;99.90
6988;DHT22;3534;49.960;8.018;2023-01-04T08:00:31;9.40;99.90
6988;DHT22;3534;49.960;8.018;2023-01-04T08:02:58;9.40;99.90
6988;DHT22;3534;49.960;8.018;2023-01-04T08:05:26;9.40;99.90
6988;DHT22;3534;49.960;8.018;2023-01-04T08:07:52;9.40;99.90
6988;DHT22;3534;49.960;8.018;2023-01-04T08:10:19;9.40;99.90
6988;DHT22;3534;49.960;8.018;2023-01-04T08:12:46;9.40;99.90
6988;DHT22;3534;49.960;8.018;2023-01-04T08:15:13;9.40;99.90
6988;DHT22;3534;49.960;8.018;2023-01-04T08:17:40;9.50;99.90
6988;DHT22;3534;49.960;8.018;2023-01-04T08:20:07;9.50;99.90
6988;DHT22;3534;49.960;8.018;2023-01-04T08:22:35;9.50;99.90
6988;DHT22;3534;49.960;8.018;2023-01-04T08:25:02;9.40;99.90
6988;DHT22;3534;49.960;8.018;2023-01-04T08:27:30;9.40;99.90
6988;DHT22;3534;49.960;8.018;2023-01-04T08:29:57;9.40;99.90
6988;DHT22;3534;49.960;8.018;2023-01-04T08:32:24;9.50;99.90
6988;DHT22;3534;49.960;8.018;2023-01-04T08:34:50;9.50;99.90
6988;DHT22;3534;49.960;8.018;2023-01-04T08:37:18;9.50;99.90
6988;DHT22;3534;49.960;8.018;2023-01-04T08:39:46;9.50;99.90
6988;DHT22;3534;49.960;8.018;2023-01-04T08:42:13;9.50;99.90
6988;DHT22;3534;49.960;8.018;2023-01-04T08:44:40;9.40;99.90
6988;DHT22;3534;49.960;8.018;2023-01-04T08:47:07;9.50;99.90
6988;DHT22;3534;49.960;8.018;2023-01-04T08:49:33;9.50;99.90
6988;DHT22;3534;49.960;8.018;2023-01-04T08:52:00;9.50;99.90
6988;DHT22;3534;49.960;8.018;2023-01-04T08:54:27;9.50;99.90
6988;DHT22;3534;49.960;8.018;2023-01-04T08:56:55;9.50;99.90
6988;DHT22;3534;49.960;8.018;2023-01-04T08:59:21;9.50;99.90
6988;DHT22;3534;49.960;8.018;2023-01-04T09:01:48;9.60;99.90
6988;DHT22;3534;49.960;8.018;2023-01-04T09:04:15;9.60;99.90
6988;DHT22;3534;49.960;8.018;2023-01-04T09:06:41;9.60;99.90
6988;DHT22;3534;49.960;8.018;2023-01-04T09:09:08;9.60;99.90
6988;DHT22;3534;49.960;8.018;2023-01-04T09:11:37;9.60;99.90
6988;DHT22;3534;49.960;8.018;2023-01-04T09:14:05;9.70;99.90
6988;DHT22;3534;49.960;8.018;2023-01-04T09:16:35;9.60;99.90
6988;DHT22;3534;49.960;8.018;2023-01-04T09:19:02;9.60;99.90
6988;DHT22;3534;49.960;8.018;2023-01-04T09:21:29;9.70;99.90
6988;DHT22;3534;49.960;8.018;2023-01-04T09:23:56;9.70;99.90
6988;DHT22;3534;49.960;8.018;2023-01-04T09:26:23;9.70;99.90
6988;DHT22;3534;49.960;8.018;2023-01-04T09:28:51;9.70;99.90
6988;DHT22;3534;49.960;8.018;2023-01-04T09:31:22;9.70;99.90
6988;DHT22;3534;49.960;8.018;2023-01-04T09:33:49;9.80;99.90
6988;DHT22;3534;49.960;8.018;2023-01-04T09:36:17;9.80;99.90
6988;DHT22;3534;49.960;8.018;2023-01-04T09:38:44;9.80;99.90
6988;DHT22;3534;49.960;8.018;2023-01-04T09:41:17;9.80;99.90
6988;DHT22;3534;49.960;8.018;2023-01-04T09:43:48;9.80;99.90
6988;DHT22;3534;49.960;8.018;2023-01-04T09:46:22;9.80;99.90
6988;DHT22;3534;49.960;8.018;2023-01-04T09:48:54;9.80;99.90
6988;DHT22;3534;49.960;8.018;2023-01-04T09:51:23;9.90;99.90
6988;DHT22;3534;49.960;8.018;2023-01-04T09:53:55;9.80;99.90
6988;DHT22;3534;49.960;8.018;2023-01-04T09:56:27;9.90;99.90
6988;DHT22;3534;49.960;8.018;2023-01-04T09:58:56;9.90;99.90
6988;DHT22;3534;49.960;8.018;2023-01-04T10:01:27;9.90;99.90
6988;DHT22;3534;49.960;8.018;2023-01-04T10:04:02;9.90;99.90
6988;DHT22;3534;49.960;8.018;2023-01-04T10:06:30;9.90;99.90
6988;DHT22;3534;49.960;8.018;2023-01-04T10:09:02;9.90;99.90
6988;DHT22;3534;49.960;8.018;2023-01-04T10:11:43;9.90;99.90
6988;DHT22;3534;49.960;8.018;2023-01-04T10:14:32;9.90;99.90
6988;DHT22;3534;49.960;8.018;2023-01-04T10:17:10;9.90;99.90
6988;DHT22;3534;49.960;8.018;2023-01-04T10:19:52;9.90;99.90
6988;DHT22;3534;49.960;8.018;2023-01-04T10:22:26;9.90;99.90
6988;DHT22;3534;49.960;8.018;2023-01-04T10:25:01;10.00;99.90
6988;DHT22;3534;49.960;8.018;2023-01-04T10:27:35;10.00;99.90
6988;DHT22;3534;49.960;8.018;2023-01-04T10:30:15;10.00;99.90
6988;DHT22;3534;49.960;8.018;2023-01-04T10:32:52;10.00;99.90
6988;DHT22;3534;49.960;8.018;2023-01-04T10:35:23;10.00;99.90
6988;DHT22;3534;49.960;8.018;2023-01-04T10:37:51;10.00;99.90
6988;DHT22;3534;49.960;8.018;2023-01-04T10:40:19;10.00;99.90
6988;DHT22;3534;49.960;8.018;2023-01-04T10:42:54;10.00;99.90
6988;DHT22;3534;49.960;8.018;2023-01-04T10:45:27;10.00;99.90
6988;DHT22;3534;49.960;8.018;2023-01-04T10:48:06;10.10;99.90
6988;DHT22;3534;49.960;8.018;2023-01-04T10:50:38;10.10;99.90
6988;DHT22;3534;49.960;8.018;2023-01-04T10:53:11;10.10;99.90
6988;DHT22;3534;49.960;8.018;2023-01-04T10:55:44;10.10;99.90
6988;DHT22;3534;49.960;8.018;2023-01-04T10:58:18;10.20;99.90
6988;DHT22;3534;49.960;8.018;2023-01-04T11:00:49;10.20;99.90
6988;DHT22;3534;49.960;8.018;2023-01-04T11:03:23;10.20;99.90
6988;DHT22;3534;49.960;8.018;2023-01-04T11:05:56;10.20;99.90
6988;DHT22;3534;49.960;8.018;2023-01-04T11:08:28;10.20;99.90
6988;DHT22;3534;49.960;8.018;2023-01-04T11:10:59;10.20;99.90
6988;DHT22;3534;49.960;8.018;2023-01-04T11:13:29;10.20;99.90
6988;DHT22;3534;49.960;8.018;2023-01-04T11:15:57;10.20;99.90
6988;DHT22;3534;49.960;8.018;2023-01-04T11:18:27;10.30;99.90
6988;DHT22;3534;49.960;8.018;2023-01-04T11:20:54;10.30;99.90
6988;DHT22;3534;49.960;8.018;2023-01-04T11:23:21;10.30;99.90
6988;DHT22;3534;49.960;8.018;2023-01-04T11:25:50;10.30;99.90
6988;DHT22;3534;49.960;8.018;2023-01-04T11:28:22;10.30;99.90
6988;DHT22;3534;49.960;8.018;2023-01-04T11:30:54;10.30;99.90
6988;DHT22;3534;49.960;8.018;2023-01-04T11:33:22;10.30;99.90
6988;DHT22;3534;49.960;8.018;2023-01-04T11:35:52;10.40;99.90
6988;DHT22;3534;49.960;8.018;2023-01-04T11:38:21;10.40;99.90
6988;DHT22;3534;49.960;8.018;2023-01-04T11:40:57;10.40;99.90
6988;DHT22;3534;49.960;8.018;2023-01-04T11:43:25;10.40;99.90
6988;DHT22;3534;49.960;8.018;2023-01-04T11:46:00;10.40;99.90
6988;DHT22;3534;49.960;8.018;2023-01-04T11:48:35;10.50;99.90
6988;DHT22;3534;49.960;8.018;2023-01-04T11:51:04;10.50;99.90
6988;DHT22;3534;49.960;8.018;2023-01-04T11:53:32;10.50;99.90
6988;DHT22;3534;49.960;8.018;2023-01-04T11:56:18;10.50;99.90
6988;DHT22;3534;49.960;8.018;2023-01-04T11:59:07;10.50;99.90
6988;DHT22;3534;49.960;8.018;2023-01-04T12:01:38;10.50;99.90
6988;DHT22;3534;49.960;8.018;2023-01-04T12:04:11;10.50;99.90
6988;DHT22;3534;49.960;8.018;2023-01-04T12:06:43;10.60;99.90
6988;DHT22;3534;49.960;8.018;2023-01-04T12:09:13;10.60;99.90
6988;DHT22;3534;49.960;8.018;2023-01-04T12:11:42;10.60;99.90
6988;DHT22;3534;49.960;8.018;2023-01-04T12:14:18;10.60;99.90
6988;DHT22;3534;49.960;8.018;2023-01-04T12:16:48;10.60;99.90
6988;DHT22;3534;49.960;8.018;2023-01-04T12:19:17;10.60;99.90
6988;DHT22;3534;49.960;8.018;2023-01-04T12:21:48;10.60;99.90
6988;DHT22;3534;49.960;8.018;2023-01-04T12:24:17;10.70;99.90
6988;DHT22;3534;49.960;8.018;2023-01-04T12:26:45;10.70;99.90
6988;DHT22;3534;49.960;8.018;2023-01-04T12:29:31;10.70;99.90
6988;DHT22;3534;49.960;8.018;2023-01-04T12:34:59;10.70;99.90
6988;DHT22;3534;49.960;8.018;2023-01-04T12:37:45;10.70;99.90
6988;DHT22;3534;49.960;8.018;2023-01-04T12:40:52;10.80;99.90
6988;DHT22;3534;49.960;8.018;2023-01-04T12:43:26;10.80;99.90
6988;DHT22;3534;49.960;8.018;2023-01-04T12:46:39;10.80;99.90
6988;DHT22;3534;49.960;8.018;2023-01-04T12:49:48;10.80;99.90
6988;DHT22;3534;49.960;8.018;2023-01-04T12:52:41;10.90;99.90
6988;DHT22;3534;49.960;8.018;2023-01-04T13:01:29;10.90;99.90
6988;DHT22;3534;49.960;8.018;2023-01-04T13:03:58;11.00;99.90
6988;DHT22;3534;49.960;8.018;2023-01-04T13:06:27;11.00;99.90
6988;DHT22;3534;49.960;8.018;2023-01-04T13:08:54;11.00;99.90
6988;DHT22;3534;49.960;8.018;2023-01-04T13:11:43;11.10;99.90
6988;DHT22;3534;49.960;8.018;2023-01-04T13:14:18;11.10;99.90
6988;DHT22;3534;49.960;8.018;2023-01-04T13:16:52;11.10;99.90
6988;DHT22;3534;49.960;8.018;2023-01-04T13:19:23;11.10;99.90
6988;DHT22;3534;49.960;8.018;2023-01-04T13:21:51;11.10;99.90
6988;DHT22;3534;49.960;8.018;2023-01-04T13:24:21;11.10;99.90
6988;DHT22;3534;49.960;8.018;2023-01-04T13:26:49;11.10;99.90
6988;DHT22;3534;49.960;8.018;2023-01-04T13:29:20;11.00;99.90
6988;DHT22;3534;49.960;8.018;2023-01-04T13:31:50;11.10;99.90
6988;DHT22;3534;49.960;8.018;2023-01-04T13:34:20;11.10;99.90
6988;DHT22;3534;49.960;8.018;2023-01-04T13:36:58;11.10;99.90
6988;DHT22;3534;49.960;8.018;2023-01-04T13:39:27;11.10;99.90
6988;DHT22;3534;49.960;8.018;2023-01-04T13:41:54;11.00;99.90
6988;DHT22;3534;49.960;8.018;2023-01-04T13:44:46;11.10;99.90
6988;DHT22;3534;49.960;8.018;2023-01-04T13:47:16;11.10;99.90
6988;DHT22;3534;49.960;8.018;2023-01-04T13:49:42;11.10;99.90
6988;DHT22;3534;49.960;8.018;2023-01-04T13:52:18;11.10;99.90
6988;DHT22;3534;49.960;8.018;2023-01-04T13:54:45;11.10;99.90
6988;DHT22;3534;49.960;8.018;2023-01-04T13:57:14;11.10;99.90
6988;DHT22;3534;49.960;8.018;2023-01-04T13:59:46;11.10;99.90
6988;DHT22;3534;49.960;8.018;2023-01-04T14:02:16;11.10;99.90
6988;DHT22;3534;49.960;8.018;2023-01-04T14:04:44;11.00;99.90
6988;DHT22;3534;49.960;8.018;2023-01-04T14:07:12;11.00;99.90
6988;DHT22;3534;49.960;8.018;2023-01-04T14:09:48;11.00;99.90
6988;DHT22;3534;49.960;8.018;2023-01-04T14:12:17;11.00;99.90
6988;DHT22;3534;49.960;8.018;2023-01-04T14:14:49;11.00;99.90
6988;DHT22;3534;49.960;8.018;2023-01-04T14:17:22;11.00;99.90
6988;DHT22;3534;49.960;8.018;2023-01-04T14:19:53;11.00;99.90
6988;DHT22;3534;49.960;8.018;2023-01-04T14:22:32;11.00;99.90
6988;DHT22;3534;49.960;8.018;2023-01-04T14:25:28;11.00;99.90
6988;DHT22;3534;49.960;8.018;2023-01-04T14:27:47;10.90;99.90
6988;DHT22;3534;49.960;8.018;2023-01-04T14:30:24;10.90;99.90
6988;DHT22;3534;49.960;8.018;2023-01-04T14:32:56;10.90;99.90
6988;DHT22;3534;49.960;8.018;2023-01-04T14:35:23;10.90;99.90
6988;DHT22;3534;49.960;8.018;2023-01-04T14:37:51;10.90;99.90
6988;DHT22;3534;49.960;8.018;2023-01-04T14:40:23;10.80;99.90
6988;DHT22;3534;49.960;8.018;2023-01-04T14:42:51;10.80;99.90
6988;DHT22;3534;49.960;8.018;2023-01-04T14:45:17;10.80;99.90
6988;DHT22;3534;49.960;8.018;2023-01-04T14:47:45;10.80;99.90
6988;DHT22;3534;49.960;8.018;2023-01-04T14:50:13;10.80;99.90
6988;DHT22;3534;49.960;8.018;2023-01-04T14:52:40;10.80;99.90
6988;DHT22;3534;49.960;8.018;2023-01-04T14:55:08;10.80;99.90
6988;DHT22;3534;49.960;8.018;2023-01-04T14:57:39;10.80;99.90
6988;DHT22;3534;49.960;8.018;2023-01-04T15:00:11;10.80;99.90
6988;DHT22;3534;49.960;8.018;2023-01-04T15:02:38;10.80;99.90
6988;DHT22;3534;49.960;8.018;2023-01-04T15:05:07;10.80;99.90
6988;DHT22;3534;49.960;8.018;2023-01-04T15:07:36;10.80;99.90
6988;DHT22;3534;49.960;8.018;2023-01-04T15:10:06;10.80;99.90
6988;DHT22;3534;49.960;8.018;2023-01-04T15:12:33;10.80;99.90
6988;DHT22;3534;49.960;8.018;2023-01-04T15:15:00;10.80;99.90
6988;DHT22;3534;49.960;8.018;2023-01-04T15:17:26;10.80;99.90
6988;DHT22;3534;49.960;8.018;2023-01-04T15:19:53;10.80;99.90
6988;DHT22;3534;49.960;8.018;2023-01-04T15:22:21;10.80;99.90
6988;DHT22;3534;49.960;8.018;2023-01-04T15:24:47;10.80;99.90
6988;DHT22;3534;49.960;8.018;2023-01-04T15:27:14;10.90;99.90
6988;DHT22;3534;49.960;8.018;2023-01-04T15:29:41;10.80;99.90
6988;DHT22;3534;49.960;8.018;2023-01-04T15:32:07;10.80;99.90
6988;DHT22;3534;49.960;8.018;2023-01-04T15:34:34;10.80;99.90
6988;DHT22;3534;49.960;8.018;2023-01-04T15:37:01;10.80;99.90
6988;DHT22;3534;49.960;8.018;2023-01-04T15:39:29;10.80;99.90
6988;DHT22;3534;49.960;8.018;2023-01-04T15:41:55;10.80;99.90
6988;DHT22;3534;49.960;8.018;2023-01-04T15:44:42;10.80;99.90
6988;DHT22;3534;49.960;8.018;2023-01-04T15:47:08;10.80;99.90
6988;DHT22;3534;49.960;8.018;2023-01-04T15:49:35;10.80;99.90
6988;DHT22;3534;49.960;8.018;2023-01-04T15:52:02;10.80;99.90
6988;DHT22;3534;49.960;8.018;2023-01-04T15:54:30;10.80;99.90
6988;DHT22;3534;49.960;8.018;2023-01-04T15:56:56;10.80;99.90
6988;DHT22;3534;49.960;8.018;2023-01-04T15:59:23;10.80;99.90
6988;DHT22;3534;49.960;8.018;2023-01-04T16:01:50;10.80;99.90
6988;DHT22;3534;49.960;8.018;2023-01-04T16:04:17;10.80;99.90
6988;DHT22;3534;49.960;8.018;2023-01-04T16:06:43;10.80;99.90
6988;DHT22;3534;49.960;8.018;2023-01-04T16:09:10;10.80;99.90
6988;DHT22;3534;49.960;8.018;2023-01-04T16:11:38;10.90;99.90
6988;DHT22;3534;49.960;8.018;2023-01-04T16:14:26;10.90;99.90
6988;DHT22;3534;49.960;8.018;2023-01-04T16:16:53;10.80;99.90
6988;DHT22;3534;49.960;8.018;2023-01-04T16:19:19;10.90;99.90
6988;DHT22;3534;49.960;8.018;2023-01-04T16:21:46;10.80;99.90
6988;DHT22;3534;49.960;8.018;2023-01-04T16:24:12;10.80;99.90
6988;DHT22;3534;49.960;8.018;2023-01-04T16:26:40;10.80;99.90
6988;DHT22;3534;49.960;8.018;2023-01-04T16:29:10;10.90;99.90
6988;DHT22;3534;49.960;8.018;2023-01-04T16:31:38;10.80;99.90
6988;DHT22;3534;49.960;8.018;2023-01-04T16:34:10;10.80;99.90
6988;DHT22;3534;49.960;8.018;2023-01-04T16:36:37;10.80;99.90
6988;DHT22;3534;49.960;8.018;2023-01-04T16:39:04;10.80;99.90
6988;DHT22;3534;49.960;8.018;2023-01-04T16:41:31;10.90;99.90
6988;DHT22;3534;49.960;8.018;2023-01-04T16:44:00;10.80;99.90
6988;DHT22;3534;49.960;8.018;2023-01-04T16:46:30;10.80;99.90
6988;DHT22;3534;49.960;8.018;2023-01-04T16:49:00;10.80;99.90
6988;DHT22;3534;49.960;8.018;2023-01-04T16:51:28;10.90;99.90
6988;DHT22;3534;49.960;8.018;2023-01-04T16:53:56;10.90;99.90
6988;DHT22;3534;49.960;8.018;2023-01-04T16:56:23;10.90;99.90